Time;durP1;ratioP1;P1;durP2;ratioP2;P2;SDS_P1;SDS_P2;PMS_P1;PMS_P2;Temp;Humidity;BMP_temperature;BMP_pressure;BME280_temperature;BME280_humidity;BME280_pressure;Samples;Min_cycle;Max_cycle;Signal;HPM_P1;HPM_P2
2022/05/23 00:01:54;;;;;;;5.27;2.80;;;12.50;99.90;;;;;;4941172;29;20460;-73
2022/05/23 00:04:23;;;;;;;2.83;2.57;;;12.40;99.90;;;;;;4939853;29;20445;-73
2022/05/23 00:06:51;;;;;;;2.70;2.50;;;12.40;99.90;;;;;;4939582;29;20539;-74
2022/05/23 00:09:20;;;;;;;7.47;3.53;;;12.40;99.90;;;;;;4939560;29;20621;-74
2022/05/23 00:11:47;;;;;;;4.43;3.03;;;12.40;99.90;;;;;;4939189;29;20476;-73
2022/05/23 00:14:16;;;;;;;4.60;2.70;;;12.40;99.90;;;;;;4939369;29;20774;-73
2022/05/23 00:16:47;;;;;;;5.03;2.70;;;12.40;99.90;;;;;;4939673;29;20875;-73
2022/05/23 00:19:16;;;;;;;4.73;2.50;;;12.40;99.90;;;;;;4940060;29;20547;-73
2022/05/23 00:21:46;;;;;;;5.30;2.57;;;12.40;99.90;;;;;;4939326;29;20464;-73
2022/05/23 00:24:15;;;;;;;3.40;2.10;;;12.40;99.90;;;;;;4940591;28;20931;-73
2022/05/23 00:26:46;;;;;;;3.47;2.30;;;12.40;99.90;;;;;;4939021;29;20663;-74
2022/05/23 00:29:14;;;;;;;3.83;2.27;;;12.40;99.90;;;;;;4939871;29;20472;-74
2022/05/23 00:35:17;;;;;;;2.47;2.27;;;12.40;99.90;;;;;;4939989;29;20496;-74
2022/05/23 00:37:17;;;;;;;3.20;2.30;;;12.40;99.90;;;;;;4938616;29;20459;-75
2022/05/23 00:39:45;;;;;;;3.43;2.50;;;12.40;99.90;;;;;;4938989;28;20440;-75
2022/05/23 00:45:03;;;;;;;6.33;2.07;;;12.50;99.90;;;;;;4928922;28;20456;-76
2022/05/23 00:47:33;;;;;;;2.40;2.00;;;12.40;99.90;;;;;;4936334;29;20458;-74
2022/05/23 00:50:03;;;;;;;9.93;4.53;;;12.40;99.90;;;;;;4929852;29;20469;-75
2022/05/23 00:52:34;;;;;;;3.10;2.50;;;12.40;99.90;;;;;;4933653;29;20485;-74
2022/05/23 00:55:06;;;;;;;3.83;2.30;;;12.30;99.90;;;;;;4936403;29;20888;-73
2022/05/23 00:57:38;;;;;;;6.63;2.40;;;12.30;99.90;;;;;;4941467;29;20445;-72
2022/05/23 01:00:10;;;;;;;4.40;2.53;;;12.20;99.90;;;;;;4940836;29;20868;-77
2022/05/23 01:02:39;;;;;;;3.50;2.60;;;12.20;99.90;;;;;;4941569;29;20469;-71
2022/05/23 01:05:10;;;;;;;3.90;3.27;;;12.10;99.90;;;;;;4940729;29;20470;-71
2022/05/23 01:07:38;;;;;;;3.03;2.40;;;12.20;99.90;;;;;;4940940;29;20902;-72
2022/05/23 01:10:09;;;;;;;5.00;2.50;;;12.20;99.90;;;;;;4941239;28;21082;-71
2022/05/23 01:12:38;;;;;;;5.03;2.30;;;12.10;99.90;;;;;;4940869;28;20746;-72
2022/05/23 01:15:18;;;;;;;4.60;3.07;;;12.10;99.90;;;;;;4941776;29;20832;-72
2022/05/23 01:17:46;;;;;;;3.60;2.33;;;12.00;99.90;;;;;;4941470;29;20902;-71
2022/05/23 01:20:15;;;;;;;4.93;2.60;;;12.00;99.90;;;;;;4941417;29;20523;-71
2022/05/23 01:22:51;;;;;;;4.00;2.50;;;12.00;99.90;;;;;;4941652;29;20760;-71
2022/05/23 01:25:30;;;;;;;3.63;2.40;;;12.00;99.90;;;;;;4941171;29;20440;-74
2022/05/23 01:27:58;;;;;;;3.10;2.80;;;12.00;99.90;;;;;;4942087;29;20456;-73
2022/05/23 01:30:26;;;;;;;3.97;2.80;;;12.00;99.90;;;;;;4940798;29;20571;-74
2022/05/23 01:32:54;;;;;;;3.37;3.03;;;12.00;99.90;;;;;;4942225;29;20453;-72
2022/05/23 01:35:22;;;;;;;4.10;2.70;;;12.00;99.90;;;;;;4940721;28;20445;-71
2022/05/23 01:37:50;;;;;;;3.33;2.87;;;12.00;99.90;;;;;;4940845;29;20445;-71
2022/05/23 01:40:19;;;;;;;6.37;3.27;;;12.00;99.90;;;;;;4940876;28;20535;-70
2022/05/23 01:42:49;;;;;;;3.10;2.50;;;12.00;99.90;;;;;;4941102;28;20567;-70
2022/05/23 01:45:23;;;;;;;4.47;2.70;;;12.10;99.90;;;;;;4941588;29;20469;-73
2022/05/23 01:47:53;;;;;;;3.27;3.00;;;12.10;99.90;;;;;;4942455;29;20488;-71
2022/05/23 01:50:23;;;;;;;3.60;2.30;;;12.20;99.90;;;;;;4941256;29;20571;-71
2022/05/23 01:52:51;;;;;;;2.70;2.50;;;12.30;99.90;;;;;;4941177;28;20511;-70
2022/05/23 01:55:19;;;;;;;2.80;2.60;;;12.30;99.90;;;;;;4941406;28;20445;-71
2022/05/23 01:57:48;;;;;;;2.80;2.70;;;12.40;99.90;;;;;;4941353;28;20511;-76
2022/05/23 02:03:03;;;;;;;8.80;3.10;;;12.60;99.90;;;;;;4947085;29;20481;-79
2022/05/23 02:05:33;;;;;;;4.43;2.20;;;12.80;99.90;;;;;;4946763;29;21101;-78
2022/05/23 02:08:01;;;;;;;3.20;2.57;;;12.80;99.90;;;;;;4946891;28;20487;-79
2022/05/23 02:10:29;;;;;;;3.10;2.57;;;12.90;99.90;;;;;;4949627;29;20557;-72
2022/05/23 02:13:02;;;;;;;2.97;2.60;;;12.90;99.90;;;;;;4941164;29;20528;-70
2022/05/23 02:15:32;;;;;;;3.23;2.63;;;12.90;99.90;;;;;;4941980;29;20507;-69
2022/05/23 02:18:01;;;;;;;3.00;2.80;;;12.80;99.90;;;;;;4941891;29;20456;-69
2022/05/23 02:20:29;;;;;;;3.37;2.70;;;12.70;99.90;;;;;;4942198;29;20437;-69
2022/05/23 02:22:57;;;;;;;3.07;2.83;;;12.60;99.90;;;;;;4942739;29;20481;-69
2022/05/23 02:25:26;;;;;;;3.57;2.60;;;12.50;99.90;;;;;;4942095;29;20492;-71
2022/05/23 02:27:56;;;;;;;5.00;2.97;;;12.40;99.90;;;;;;4940945;29;20463;-68
2022/05/23 02:30:26;;;;;;;3.00;2.67;;;12.40;99.90;;;;;;4940897;28;21226;-71
2022/05/23 02:32:54;;;;;;;2.80;2.40;;;12.40;99.90;;;;;;4941393;29;20451;-72
2022/05/23 02:35:22;;;;;;;5.13;2.40;;;12.30;99.90;;;;;;4941388;29;20915;-69
2022/05/23 02:37:49;;;;;;;3.10;2.80;;;12.20;99.90;;;;;;4941117;29;20447;-70
2022/05/23 02:40:18;;;;;;;2.50;2.30;;;12.20;99.90;;;;;;4940809;29;20485;-70
2022/05/23 02:42:45;;;;;;;3.17;3.00;;;12.20;99.90;;;;;;4941718;29;20469;-71
2022/05/23 02:45:13;;;;;;;2.90;2.70;;;12.20;99.90;;;;;;4940810;29;20532;-72
2022/05/23 02:47:43;;;;;;;3.27;2.97;;;12.10;99.90;;;;;;4940804;29;20472;-71
2022/05/23 02:50:12;;;;;;;3.60;3.30;;;12.10;99.90;;;;;;4941087;28;20909;-71
2022/05/23 02:52:41;;;;;;;4.10;3.17;;;12.00;99.90;;;;;;4940679;29;20457;-69
2022/05/23 02:55:10;;;;;;;3.77;2.77;;;12.10;99.90;;;;;;4940702;28;20547;-69
2022/05/23 02:57:38;;;;;;;3.80;2.80;;;12.10;99.90;;;;;;4941120;29;20511;-71
2022/05/23 03:00:09;;;;;;;3.67;3.00;;;12.00;99.90;;;;;;4939944;29;20463;-71
2022/05/23 03:05:24;;;;;;;4.87;3.17;;;12.00;99.90;;;;;;4939466;29;20952;-71
2022/05/23 03:07:52;;;;;;;3.93;2.77;;;11.90;99.90;;;;;;4940795;29;20451;-71
2022/05/23 03:10:20;;;;;;;3.20;2.50;;;11.90;99.90;;;;;;4939468;29;20487;-70
2022/05/23 03:12:48;;;;;;;4.33;3.00;;;11.90;99.90;;;;;;4940239;29;20539;-70
2022/05/23 03:15:16;;;;;;;4.50;2.97;;;11.90;99.90;;;;;;4939897;29;20440;-70
2022/05/23 03:17:44;;;;;;;2.90;2.60;;;11.80;99.90;;;;;;4939577;29;20448;-70
2022/05/23 03:20:12;;;;;;;3.40;2.70;;;11.80;99.90;;;;;;4940661;29;20463;-70
2022/05/23 03:28:13;;;;;;;8.00;3.77;;;11.90;99.90;;;;;;4940960;29;20536;-71
2022/05/23 03:30:41;;;;;;;3.27;3.00;;;11.90;99.90;;;;;;4939834;28;20629;-70
2022/05/23 03:33:11;;;;;;;3.40;3.10;;;11.90;99.90;;;;;;4939666;28;20980;-70
2022/05/23 03:35:40;;;;;;;4.50;3.07;;;12.00;99.90;;;;;;4939819;29;20463;-71
2022/05/23 03:38:10;;;;;;;3.53;3.07;;;12.00;99.90;;;;;;4939534;28;20924;-70
2022/05/23 03:40:40;;;;;;;3.27;2.97;;;12.00;99.90;;;;;;4938919;29;20851;-70
2022/05/23 03:43:08;;;;;;;5.00;3.10;;;12.10;99.90;;;;;;4940285;28;20448;-70
2022/05/23 03:45:37;;;;;;;3.97;3.13;;;12.10;99.90;;;;;;4939668;29;20523;-70
2022/05/23 03:48:06;;;;;;;3.63;2.70;;;12.20;99.90;;;;;;4939456;28;20948;-70
2022/05/23 03:50:36;;;;;;;3.40;2.77;;;12.20;99.90;;;;;;4939292;29;20979;-70
2022/05/23 03:53:04;;;;;;;3.73;2.70;;;12.30;99.90;;;;;;4939818;29;20455;-70
2022/05/23 03:55:34;;;;;;;3.57;2.60;;;12.30;99.90;;;;;;4938767;28;20484;-69
2022/05/23 03:58:02;;;;;;;3.23;2.73;;;12.20;99.90;;;;;;4939292;28;20733;-69
2022/05/23 04:00:30;;;;;;;2.23;2.13;;;12.20;99.90;;;;;;4940531;29;20417;-69
2022/05/23 04:02:58;;;;;;;3.57;2.47;;;12.20;99.90;;;;;;4938722;28;20745;-70
2022/05/23 04:05:26;;;;;;;5.60;3.03;;;12.20;99.90;;;;;;4938885;29;20441;-69
2022/05/23 04:10:47;;;;;;;4.97;3.23;;;12.00;99.90;;;;;;4917765;29;20556;-69
2022/05/23 04:13:15;;;;;;;6.53;3.03;;;12.10;99.90;;;;;;4916818;29;20824;-68
2022/05/23 04:15:43;;;;;;;2.33;2.23;;;12.00;99.90;;;;;;4916711;29;20449;-69
2022/05/23 04:18:10;;;;;;;3.10;2.70;;;12.00;99.90;;;;;;4916641;29;20489;-67
2022/05/23 04:20:38;;;;;;;2.77;2.30;;;12.00;99.90;;;;;;4919979;29;20470;-69
2022/05/23 04:23:08;;;;;;;3.70;2.60;;;12.20;99.90;;;;;;4920713;29;20524;-69
2022/05/23 04:25:39;;;;;;;3.90;2.70;;;12.20;99.90;;;;;;4921753;29;20477;-71
2022/05/23 04:28:08;;;;;;;3.70;3.40;;;12.20;99.90;;;;;;4920245;29;20449;-71
2022/05/23 04:30:37;;;;;;;4.17;2.47;;;12.20;99.90;;;;;;4926715;28;20516;-70
2022/05/23 04:35:52;;;;;;;3.33;2.60;;;12.20;99.90;;;;;;4953950;28;20447;-69
2022/05/23 04:38:20;;;;;;;2.43;2.13;;;12.20;99.90;;;;;;4953360;28;20462;-68
2022/05/23 04:40:49;;;;;;;3.80;2.60;;;12.20;99.90;;;;;;4954832;28;20464;-68
2022/05/23 04:43:18;;;;;;;3.30;3.13;;;12.20;99.90;;;;;;4951983;28;20440;-68
2022/05/23 04:45:46;;;;;;;2.40;2.30;;;12.10;99.90;;;;;;4955221;28;20450;-72
2022/05/23 04:51:00;;;;;;;2.90;2.30;;;12.10;99.90;;;;;;4949671;28;20479;-72
2022/05/23 04:53:28;;;;;;;5.33;2.63;;;12.20;99.90;;;;;;4951260;28;20504;-72
2022/05/23 04:55:55;;;;;;;4.20;2.37;;;12.30;99.90;;;;;;4953316;28;20448;-72
2022/05/23 04:58:27;;;;;;;2.90;2.30;;;12.30;99.90;;;;;;4951903;28;20448;-71
2022/05/23 05:00:56;;;;;;;5.90;2.23;;;12.30;99.90;;;;;;4953566;28;20451;-71
2022/05/23 05:03:24;;;;;;;2.73;2.53;;;12.40;99.90;;;;;;4952015;28;20437;-71
2022/05/23 05:05:53;;;;;;;2.50;2.30;;;12.60;99.90;;;;;;4954143;28;20433;-73
2022/05/23 05:08:21;;;;;;;3.03;2.30;;;12.60;99.90;;;;;;4951917;28;20442;-73
2022/05/23 05:10:49;;;;;;;3.80;2.17;;;12.70;99.90;;;;;;4951915;28;20484;-75
2022/05/23 05:13:17;;;;;;;3.37;2.67;;;12.70;99.90;;;;;;4950639;28;20468;-70
2022/05/23 05:15:46;;;;;;;2.67;2.47;;;12.80;99.90;;;;;;4946846;28;20457;-68
2022/05/23 05:18:14;;;;;;;5.40;2.23;;;12.90;99.90;;;;;;4948592;28;20449;-68
2022/05/23 05:20:45;;;;;;;2.27;2.03;;;13.10;99.90;;;;;;4951243;28;20548;-68
2022/05/23 05:23:12;;;;;;;1.93;1.83;;;13.20;99.90;;;;;;4955502;28;20583;-77
2022/05/23 05:25:43;;;;;;;4.40;2.10;;;13.40;99.90;;;;;;4949069;28;20532;-78
2022/05/23 05:28:13;;;;;;;2.20;2.03;;;13.60;99.90;;;;;;4952159;28;20524;-78
2022/05/23 05:30:44;;;;;;;3.73;2.50;;;13.80;99.90;;;;;;4950903;28;20970;-77
2022/05/23 05:33:16;;;;;;;3.00;1.90;;;14.10;99.90;;;;;;4950310;28;20429;-78
2022/05/23 05:35:49;;;;;;;5.93;1.70;;;14.30;99.90;;;;;;4951056;28;20531;-77
2022/05/23 05:38:22;;;;;;;1.73;1.63;;;14.50;99.90;;;;;;4962749;28;20428;-78
2022/05/23 05:40:55;;;;;;;3.83;1.83;;;14.70;99.90;;;;;;4961590;28;20489;-77
2022/05/23 05:43:26;;;;;;;2.17;1.80;;;14.80;99.90;;;;;;4963215;28;20420;-78
2022/05/23 05:45:58;;;;;;;2.07;1.97;;;14.70;99.90;;;;;;4961776;28;20444;-78
2022/05/23 05:48:28;;;;;;;1.60;1.50;;;14.70;99.90;;;;;;4936172;28;20473;-78
2022/05/23 05:50:57;;;;;;;3.73;1.40;;;14.70;99.90;;;;;;4935741;29;20504;-77
2022/05/23 05:53:29;;;;;;;2.50;2.00;;;14.70;99.90;;;;;;4941850;28;20445;-77
2022/05/23 05:55:58;;;;;;;3.60;1.67;;;14.70;99.90;;;;;;4942657;28;20843;-78
2022/05/23 05:58:26;;;;;;;1.60;1.50;;;14.80;99.90;;;;;;4938713;29;20484;-77
2022/05/23 06:00:53;;;;;;;4.63;2.43;;;14.80;99.90;;;;;;4922608;29;20478;-77
2022/05/23 06:03:25;;;;;;;4.10;2.10;;;14.90;99.90;;;;;;4922906;29;20437;-77
2022/05/23 06:11:26;;;;;;;3.07;1.60;;;15.00;99.90;;;;;;4941280;29;20484;-76
2022/05/23 06:13:56;;;;;;;7.77;1.80;;;15.10;99.90;;;;;;4942385;29;20739;-77
2022/05/23 06:16:24;;;;;;;2.80;1.73;;;15.20;99.90;;;;;;4941346;29;20925;-76
2022/05/23 06:18:53;;;;;;;2.23;1.63;;;15.30;99.90;;;;;;4937830;28;20660;-75
2022/05/23 06:21:23;;;;;;;4.30;1.73;;;15.40;99.90;;;;;;4933560;29;20477;-75
2022/05/23 06:23:52;;;;;;;6.17;2.23;;;15.50;99.90;;;;;;4937384;29;20524;-76
2022/05/23 06:26:22;;;;;;;4.83;1.40;;;15.60;99.90;;;;;;4965120;28;20448;-76
2022/05/23 06:28:51;;;;;;;2.83;1.70;;;15.70;99.90;;;;;;4959446;28;20886;-77
2022/05/23 06:31:20;;;;;;;1.53;1.13;;;15.70;99.90;;;;;;4942738;29;20469;-73
2022/05/23 06:33:49;;;;;;;2.80;1.60;;;15.90;99.90;;;;;;4941092;29;20627;-73
2022/05/23 06:36:18;;;;;;;2.67;1.33;;;16.00;99.90;;;;;;4940702;28;20475;-73
2022/05/23 06:38:47;;;;;;;1.83;1.30;;;16.10;99.90;;;;;;4939951;28;20885;-72
2022/05/23 06:41:16;;;;;;;2.50;1.30;;;16.20;99.90;;;;;;4939253;29;20528;-72
2022/05/23 06:43:45;;;;;;;4.00;1.37;;;16.30;99.90;;;;;;4939334;28;20967;-76
2022/05/23 06:46:14;;;;;;;3.80;1.93;;;16.30;99.90;;;;;;4920763;29;20521;-69
2022/05/23 06:48:43;;;;;;;5.23;1.57;;;16.50;99.90;;;;;;4920642;29;20690;-70
2022/05/23 06:51:11;;;;;;;3.50;1.27;;;16.50;99.90;;;;;;4921187;29;21050;-70
2022/05/23 06:53:39;;;;;;;3.83;1.77;;;16.60;99.90;;;;;;4920802;29;20574;-70
2022/05/23 06:56:08;;;;;;;4.60;2.40;;;16.60;99.90;;;;;;4920710;29;20925;-70
2022/05/23 06:58:37;;;;;;;1.50;1.50;;;16.60;99.90;;;;;;4925871;29;20634;-70
2022/05/23 07:01:04;;;;;;;3.10;2.23;;;16.60;99.90;;;;;;4940870;29;20465;-70
2022/05/23 07:03:32;;;;;;;1.93;0.90;;;16.60;99.90;;;;;;4926451;28;21125;-70
2022/05/23 07:14:42;;;;;;;1.97;1.60;;;17.00;99.90;;;;;;4904826;29;21100;-71
2022/05/23 07:17:10;;;;;;;1.47;1.30;;;17.00;99.90;;;;;;4925311;29;20453;-70
2022/05/23 07:19:39;;;;;;;2.90;1.80;;;17.20;99.90;;;;;;4931755;29;20546;-69
2022/05/23 07:22:07;;;;;;;2.30;1.43;;;17.30;99.90;;;;;;4924291;29;20473;-68
2022/05/23 07:24:36;;;;;;;5.13;2.20;;;17.60;99.90;;;;;;4930700;29;20949;-69
2022/05/23 07:27:05;;;;;;;1.10;1.10;;;17.70;99.90;;;;;;4933333;29;20478;-68
2022/05/23 07:29:33;;;;;;;2.57;1.60;;;17.80;99.90;;;;;;4929810;29;21138;-69
2022/05/23 07:32:02;;;;;;;2.17;1.90;;;17.90;99.90;;;;;;4921381;29;20474;-69
2022/05/23 07:34:30;;;;;;;7.70;1.90;;;18.10;99.90;;;;;;4920704;29;20543;-69
2022/05/23 07:36:59;;;;;;;6.43;1.83;;;18.20;99.90;;;;;;4932233;29;20803;-69
2022/05/23 07:39:26;;;;;;;1.90;1.40;;;18.30;99.90;;;;;;4923881;29;20503;-69
2022/05/23 07:41:54;;;;;;;2.40;1.13;;;18.40;99.90;;;;;;4938489;29;20487;-69
2022/05/23 07:44:23;;;;;;;4.00;1.60;;;18.40;99.90;;;;;;4939861;28;20453;-70
2022/05/23 07:46:53;;;;;;;8.47;1.83;;;18.50;99.90;;;;;;4937488;29;20454;-68
2022/05/23 07:49:21;;;;;;;3.23;1.30;;;18.60;99.90;;;;;;4929867;29;21252;-69
2022/05/23 07:51:49;;;;;;;2.93;1.77;;;18.70;99.90;;;;;;4932464;29;20559;-69
2022/05/23 08:02:33;;;;;;;6.10;1.70;;;19.10;99.90;;;;;;4936752;29;20924;-69
2022/05/23 08:05:01;;;;;;;1.60;1.37;;;19.20;99.90;;;;;;4940338;29;20535;-69
2022/05/23 08:07:29;;;;;;;2.40;1.27;;;19.20;99.90;;;;;;4937502;28;20441;-69
2022/05/23 08:10:00;;;;;;;1.30;1.20;;;19.30;99.90;;;;;;4929835;28;20467;-69
2022/05/23 08:12:30;;;;;;;4.93;1.73;;;19.40;99.90;;;;;;4936681;29;20546;-69
2022/05/23 08:14:59;;;;;;;5.40;2.07;;;19.40;99.90;;;;;;4924330;29;20452;-72
2022/05/23 08:17:27;;;;;;;2.93;1.67;;;19.40;99.90;;;;;;4923689;29;20456;-72
2022/05/23 08:19:55;;;;;;;1.37;1.27;;;19.40;99.90;;;;;;4923391;29;20441;-71
2022/05/23 08:22:23;;;;;;;1.60;1.50;;;19.40;99.90;;;;;;4934321;29;20484;-71
2022/05/23 08:24:51;;;;;;;6.53;2.23;;;19.50;99.90;;;;;;4924092;29;20459;-70
2022/05/23 08:27:20;;;;;;;1.40;1.30;;;19.60;99.90;;;;;;4923598;29;20491;-74
2022/05/23 08:29:48;;;;;;;1.80;1.33;;;19.70;99.90;;;;;;4924974;29;20753;-69
2022/05/23 08:32:17;;;;;;;3.10;1.80;;;19.70;99.90;;;;;;4926883;29;20587;-69
2022/05/23 08:34:47;;;;;;;1.73;1.40;;;19.80;99.90;;;;;;4931396;29;20731;-69
2022/05/23 08:37:16;;;;;;;1.70;1.60;;;19.70;99.90;;;;;;4923233;29;20579;-69
2022/05/23 08:39:44;;;;;;;2.90;1.90;;;19.80;99.90;;;;;;4923380;29;20779;-69
2022/05/23 08:42:21;;;;;;;2.30;1.77;;;19.70;99.90;;;;;;4923400;29;21021;-70
2022/05/23 08:44:54;;;;;;;1.77;1.63;;;19.80;99.90;;;;;;4922338;29;20452;-68
2022/05/23 08:47:31;;;;;;;3.20;1.63;;;19.70;99.90;;;;;;4927477;29;20460;-69
2022/05/23 08:50:11;;;;;;;2.37;1.50;;;19.70;99.90;;;;;;4933029;29;21065;-69
2022/05/23 08:52:43;;;;;;;2.23;1.87;;;19.70;99.90;;;;;;4940709;29;20813;-69
2022/05/23 08:55:18;;;;;;;2.33;2.13;;;19.80;99.90;;;;;;4939364;29;20544;-69
2022/05/23 08:57:55;;;;;;;4.50;1.70;;;19.80;99.90;;;;;;4932719;29;20456;-68
2022/05/23 09:00:27;;;;;;;3.57;1.60;;;19.80;99.90;;;;;;4942318;29;20687;-68
2022/05/23 09:03:02;;;;;;;2.83;1.93;;;19.90;99.90;;;;;;4931039;29;20481;-71
2022/05/23 09:05:34;;;;;;;1.60;1.50;;;20.00;99.90;;;;;;4935908;29;20967;-71
2022/05/23 09:08:25;;;;;;;3.53;1.73;;;20.00;99.90;;;;;;4923724;29;20479;-72
2022/05/23 09:10:58;;;;;;;1.60;1.33;;;20.10;99.90;;;;;;4933666;29;20479;-71
2022/05/23 09:13:30;;;;;;;4.00;1.90;;;20.20;99.90;;;;;;4926788;29;20568;-71
2022/05/23 09:16:04;;;;;;;3.70;1.60;;;20.20;99.90;;;;;;4922553;29;20561;-71
2022/05/23 09:18:46;;;;;;;3.03;1.60;;;20.30;99.90;;;;;;4928974;29;20976;-72
2022/05/23 09:21:13;;;;;;;6.53;1.87;;;20.40;99.90;;;;;;4928287;29;20663;-71
2022/05/23 09:23:47;;;;;;;2.33;2.13;;;20.40;99.90;;;;;;4929726;29;20458;-71
2022/05/23 09:26:19;;;;;;;3.50;2.53;;;20.60;99.90;;;;;;4940845;29;20471;-71
2022/05/23 09:28:50;;;;;;;4.57;1.70;;;20.60;99.90;;;;;;4941791;29;21055;-71
2022/05/23 09:31:31;;;;;;;3.17;1.70;;;20.60;99.90;;;;;;4941567;28;21008;-72
2022/05/23 09:34:01;;;;;;;2.47;1.57;;;20.60;99.90;;;;;;4941351;29;20494;-71
2022/05/23 09:36:32;;;;;;;3.33;1.43;;;20.70;99.90;;;;;;4942065;28;20460;-76
2022/05/23 09:39:03;;;;;;;6.43;2.00;;;20.70;99.90;;;;;;4943256;28;20448;-68
2022/05/23 09:47:46;;;;;;;4.60;2.10;;;20.90;99.90;;;;;;4937478;28;20552;-69
2022/05/23 09:50:31;;;;;;;1.93;1.80;;;21.00;99.90;;;;;;4926547;29;20516;-69
2022/05/23 09:53:21;;;;;;;2.30;1.90;;;21.00;99.90;;;;;;4923608;29;20493;-69
2022/05/23 09:55:49;;;;;;;2.13;1.80;;;21.10;99.90;;;;;;4923899;29;20442;-69
2022/05/23 09:58:29;;;;;;;2.30;1.83;;;21.10;99.90;;;;;;4934482;28;20459;-70
2022/05/23 10:01:02;;;;;;;2.30;1.90;;;21.10;99.90;;;;;;4942087;29;20481;-69
2022/05/23 10:03:32;;;;;;;2.40;2.20;;;21.20;99.90;;;;;;4933910;29;20464;-69
2022/05/23 10:06:11;;;;;;;5.43;2.73;;;21.30;99.90;;;;;;4927224;29;20453;-69
2022/05/23 10:08:41;;;;;;;1.90;1.80;;;21.40;99.90;;;;;;4923243;29;20457;-69
2022/05/23 10:11:21;;;;;;;4.40;3.10;;;21.40;99.90;;;;;;4936613;29;20572;-73
2022/05/23 10:13:54;;;;;;;5.83;2.67;;;21.40;99.90;;;;;;4935095;29;20477;-73
2022/05/23 10:16:26;;;;;;;2.53;2.20;;;21.40;99.90;;;;;;4921978;29;20883;-71
2022/05/23 10:19:00;;;;;;;5.30;2.70;;;21.40;99.90;;;;;;4937744;28;20444;-73
2022/05/23 10:21:35;;;;;;;3.27;2.10;;;21.50;99.90;;;;;;4940588;29;20461;-68
2022/05/23 10:24:10;;;;;;;5.63;2.50;;;21.50;99.90;;;;;;4935815;29;20536;-70
2022/05/23 10:26:48;;;;;;;2.50;2.30;;;21.60;99.90;;;;;;4931171;29;20479;-70
2022/05/23 10:29:23;;;;;;;2.80;2.00;;;21.60;99.90;;;;;;4941023;29;20472;-70
2022/05/23 10:31:54;;;;;;;2.40;1.90;;;21.80;99.90;;;;;;4940484;29;20463;-70
2022/05/23 10:34:36;;;;;;;2.40;2.20;;;21.90;99.90;;;;;;4942546;29;20483;-70
2022/05/23 10:37:11;;;;;;;3.53;2.80;;;21.90;99.90;;;;;;4926332;29;20471;-70
2022/05/23 10:42:33;;;;;;;3.90;2.57;;;22.10;99.90;;;;;;4934245;29;20829;-70
2022/05/23 10:45:22;;;;;;;3.23;2.33;;;22.10;99.90;;;;;;4924380;29;20441;-69
2022/05/23 10:48:15;;;;;;;8.87;3.00;;;22.10;99.90;;;;;;4940247;29;20817;-68
2022/05/23 10:50:53;;;;;;;3.63;2.50;;;22.10;99.90;;;;;;4926923;28;20486;-68
2022/05/23 10:53:38;;;;;;;4.07;2.77;;;22.10;99.90;;;;;;4929734;29;20531;-68
2022/05/23 10:56:19;;;;;;;2.53;2.37;;;22.10;99.90;;;;;;4939682;29;21031;-68
2022/05/23 10:58:53;;;;;;;4.40;2.50;;;22.20;99.90;;;;;;4939736;29;20521;-68
2022/05/23 11:01:50;;;;;;;3.30;2.50;;;22.20;99.90;;;;;;4939970;29;20456;-68
2022/05/23 11:04:35;;;;;;;2.83;2.27;;;22.20;99.90;;;;;;4941167;29;20603;-69
2022/05/23 11:07:17;;;;;;;3.47;2.80;;;22.20;99.90;;;;;;4941313;29;20457;-70
2022/05/23 11:09:54;;;;;;;2.97;2.73;;;22.20;99.90;;;;;;4933705;29;20589;-69
2022/05/23 11:12:32;;;;;;;4.60;2.50;;;22.10;99.90;;;;;;4929368;29;20461;-68
2022/05/23 11:15:21;;;;;;;3.50;1.93;;;22.10;99.90;;;;;;4920489;29;20592;-68
2022/05/23 11:17:55;;;;;;;5.63;2.00;;;22.20;99.90;;;;;;4921210;29;20698;-68
2022/05/23 11:20:29;;;;;;;3.10;2.10;;;22.30;99.90;;;;;;4920540;29;20952;-68
2022/05/23 11:23:04;;;;;;;4.37;2.30;;;22.30;99.90;;;;;;4921096;29;20533;-68
2022/05/23 11:25:36;;;;;;;2.43;2.23;;;22.20;99.90;;;;;;4920919;29;20719;-68
2022/05/23 11:33:51;;;;;;;4.77;2.50;;;22.20;99.90;;;;;;4919935;29;20457;-68
2022/05/23 11:36:28;;;;;;;4.20;2.33;;;22.20;99.90;;;;;;4920457;29;20706;-69
2022/05/23 11:38:55;;;;;;;3.40;1.90;;;22.20;99.90;;;;;;4920638;29;20897;-71
2022/05/23 11:41:34;;;;;;;3.00;2.63;;;22.30;99.90;;;;;;4920472;29;20495;-71
2022/05/23 11:44:34;;;;;;;3.43;2.47;;;22.30;99.90;;;;;;4920664;29;20881;-69
2022/05/23 11:47:18;;;;;;;2.60;2.20;;;22.30;99.90;;;;;;4919978;29;20557;-69
2022/05/23 11:49:49;;;;;;;5.07;3.07;;;22.30;99.90;;;;;;4945048;28;20535;-70
2022/05/23 11:52:24;;;;;;;5.73;2.03;;;22.40;99.90;;;;;;4958852;28;20556;-70
2022/05/23 11:54:53;;;;;;;6.63;2.50;;;22.50;99.90;;;;;;4958514;28;20524;-70
2022/05/23 11:57:36;;;;;;;2.20;2.10;;;22.50;99.90;;;;;;4957934;28;20465;-70
2022/05/23 12:00:27;;;;;;;2.30;1.97;;;22.60;99.90;;;;;;4957699;28;20697;-69
2022/05/23 12:03:10;;;;;;;4.73;2.33;;;22.50;99.90;;;;;;4957910;28;20475;-70
2022/05/23 12:05:39;;;;;;;2.63;2.43;;;22.50;99.90;;;;;;4957878;28;20748;-69
2022/05/23 12:08:31;;;;;;;5.47;2.37;;;22.50;99.90;;;;;;4957989;28;20846;-70
2022/05/23 12:11:01;;;;;;;2.43;2.17;;;22.50;99.90;;;;;;4959274;28;20513;-70
2022/05/23 12:13:51;;;;;;;2.40;2.20;;;22.50;99.90;;;;;;4958034;28;20477;-69
2022/05/23 12:17:05;;;;;;;4.03;2.83;;;22.50;99.90;;;;;;4959124;28;20489;-70
2022/05/23 12:19:49;;;;;;;2.27;2.17;;;22.50;99.90;;;;;;4953200;28;20440;-70
2022/05/23 12:22:27;;;;;;;2.90;2.37;;;22.60;99.90;;;;;;4948488;28;21002;-69
2022/05/23 12:25:19;;;;;;;4.13;2.50;;;22.60;99.90;;;;;;4942833;28;20470;-70
2022/05/23 12:28:09;;;;;;;2.53;2.37;;;22.60;99.90;;;;;;4938803;28;20817;-69
2022/05/23 12:30:42;;;;;;;2.23;2.03;;;22.70;99.90;;;;;;4953777;28;20482;-69
2022/05/23 12:33:14;;;;;;;2.70;2.50;;;22.70;99.90;;;;;;4941649;28;20509;-69
2022/05/23 12:35:50;;;;;;;3.37;2.60;;;22.70;99.90;;;;;;4938609;29;20902;-68
2022/05/23 12:38:36;;;;;;;3.33;3.00;;;22.60;99.90;;;;;;4939353;29;20441;-69
2022/05/23 12:41:16;;;;;;;2.93;2.13;;;22.70;99.90;;;;;;4959600;28;20463;-69
2022/05/23 12:44:05;;;;;;;3.27;2.50;;;22.80;99.90;;;;;;4962266;28;20443;-69
2022/05/23 12:46:44;;;;;;;4.87;2.50;;;22.70;99.90;;;;;;4961131;28;20520;-69
2022/05/23 12:49:27;;;;;;;2.30;2.10;;;22.80;99.90;;;;;;4961563;28;20452;-69
2022/05/23 12:52:09;;;;;;;3.10;2.10;;;22.80;99.90;;;;;;4959895;28;20576;-69
2022/05/23 12:54:55;;;;;;;4.10;2.23;;;22.80;99.90;;;;;;4961278;28;20474;-69
2022/05/23 12:57:46;;;;;;;3.10;2.77;;;22.70;99.90;;;;;;4960664;28;20748;-69
2022/05/23 13:00:16;;;;;;;2.37;2.17;;;22.70;99.90;;;;;;4961020;28;20693;-69
2022/05/23 13:02:54;;;;;;;2.50;2.17;;;22.60;99.90;;;;;;4961125;28;20469;-69
2022/05/23 13:05:26;;;;;;;2.63;2.43;;;22.70;99.90;;;;;;4960834;28;20440;-69
2022/05/23 13:08:00;;;;;;;5.40;2.53;;;22.80;99.90;;;;;;4961160;28;21081;-69
2022/05/23 13:10:32;;;;;;;2.63;2.43;;;22.80;99.90;;;;;;4961250;28;20591;-69
2022/05/23 13:13:06;;;;;;;2.70;2.50;;;22.90;99.90;;;;;;4961180;28;20544;-69
2022/05/23 13:15:39;;;;;;;3.67;2.30;;;23.00;99.90;;;;;;4961509;28;20480;-69
2022/05/23 13:23:59;;;;;;;4.67;2.67;;;23.20;99.90;;;;;;4961846;28;20539;-71
2022/05/23 13:26:29;;;;;;;2.10;1.90;;;23.40;99.90;;;;;;4962956;28;20696;-71
2022/05/23 13:29:15;;;;;;;3.17;2.03;;;23.40;99.90;;;;;;4961707;28;20803;-71
2022/05/23 13:31:44;;;;;;;2.60;2.33;;;23.40;99.90;;;;;;4961026;28;20463;-71
2022/05/23 13:34:17;;;;;;;2.63;2.30;;;23.40;99.90;;;;;;4962144;28;20953;-71
2022/05/23 13:36:48;;;;;;;2.87;2.67;;;23.50;99.90;;;;;;4962179;28;21101;-71
2022/05/23 13:39:18;;;;;;;2.83;2.10;;;23.60;99.90;;;;;;4960307;28;20560;-71
2022/05/23 13:41:46;;;;;;;4.70;2.00;;;23.60;99.90;;;;;;4960412;28;21043;-71
2022/05/23 13:44:21;;;;;;;4.90;2.23;;;23.60;99.90;;;;;;4960292;28;20551;-71
2022/05/23 13:46:52;;;;;;;2.70;2.57;;;23.50;99.90;;;;;;4961655;28;20822;-70
2022/05/23 13:49:25;;;;;;;3.70;2.67;;;23.50;99.90;;;;;;4960559;28;20843;-71
2022/05/23 13:51:59;;;;;;;3.17;2.70;;;23.50;99.90;;;;;;4960696;28;20472;-70
2022/05/23 13:54:34;;;;;;;2.63;2.33;;;23.40;99.90;;;;;;4960460;28;20529;-74
2022/05/23 13:57:08;;;;;;;2.50;2.37;;;23.40;99.90;;;;;;4960267;28;20557;-70
2022/05/23 13:59:41;;;;;;;5.80;2.97;;;23.40;99.90;;;;;;4961841;28;21037;-70
2022/05/23 14:02:13;;;;;;;2.50;2.30;;;23.40;99.90;;;;;;4961051;28;20456;-70
2022/05/23 14:04:43;;;;;;;4.70;2.83;;;23.30;99.90;;;;;;4960524;28;20494;-70
2022/05/23 14:07:13;;;;;;;3.93;3.10;;;23.30;99.90;;;;;;4960411;28;20438;-69
2022/05/23 14:09:42;;;;;;;3.43;2.40;;;23.30;99.90;;;;;;4960509;28;20699;-70
2022/05/23 14:12:12;;;;;;;2.50;2.30;;;23.30;99.90;;;;;;4960898;28;20473;-72
2022/05/23 14:14:43;;;;;;;2.57;2.33;;;23.30;99.90;;;;;;4935874;28;20493;-71
2022/05/23 14:17:16;;;;;;;5.77;2.83;;;23.30;99.90;;;;;;4931707;29;21151;-71
2022/05/23 14:19:48;;;;;;;2.70;2.40;;;23.20;99.90;;;;;;4930583;29;20484;-71
2022/05/23 14:22:23;;;;;;;3.47;2.30;;;23.30;99.90;;;;;;4935180;29;20482;-71